sensor_id;sensor_type;location;lat;lon;timestamp;pressure;altitude;pressure_sealevel;temperature;humidity
37066;BME280;22981;43.080;25.550;2024-02-14T03:21:25;99334.19;;;7.47;83.44
37066;BME280;22981;43.080;25.550;2024-02-14T03:23:53;99334.19;;;7.47;83.45
37066;BME280;22981;43.080;25.550;2024-02-14T03:26:21;99334.48;;;7.48;83.56
37066;BME280;22981;43.080;25.550;2024-02-14T03:28:50;99337.27;;;7.50;83.67
37066;BME280;22981;43.080;25.550;2024-02-14T03:31:19;99341.27;;;7.50;83.79
37066;BME280;22981;43.080;25.550;2024-02-14T03:33:47;99341.78;;;7.50;83.86
37066;BME280;22981;43.080;25.550;2024-02-14T03:36:14;99349.66;;;7.47;83.90
37066;BME280;22981;43.080;25.550;2024-02-14T03:38:42;99356.83;;;7.47;84.00
37066;BME280;22981;43.080;25.550;2024-02-14T03:41:09;99361.34;;;7.46;84.12
37066;BME280;22981;43.080;25.550;2024-02-14T03:47:23;99362.97;;;7.47;84.20
37066;BME280;22981;43.080;25.550;2024-02-14T03:49:55;99370.97;;;7.47;83.97
37066;BME280;22981;43.080;25.550;2024-02-14T03:55:53;99376.08;;;7.42;83.89
37066;BME280;22981;43.080;25.550;2024-02-14T03:58:24;99380.89;;;7.43;83.75
37066;BME280;22981;43.080;25.550;2024-02-14T04:01:04;99380.89;;;7.43;83.91
37066;BME280;22981;43.080;25.550;2024-02-14T04:03:31;99382.73;;;7.42;84.05
37066;BME280;22981;43.080;25.550;2024-02-14T04:06:01;99391.33;;;7.44;84.11
37066;BME280;22981;43.080;25.550;2024-02-14T04:08:28;99390.82;;;7.45;84.18
37066;BME280;22981;43.080;25.550;2024-02-14T04:10:56;99390.64;;;7.46;84.20
37066;BME280;22981;43.080;25.550;2024-02-14T04:13:24;99398.23;;;7.49;84.25
37066;BME280;22981;43.080;25.550;2024-02-14T04:15:51;99402.53;;;7.50;84.31
37066;BME280;22981;43.080;25.550;2024-02-14T04:18:19;99398.84;;;7.51;84.31
37066;BME280;22981;43.080;25.550;2024-02-14T04:20:47;99406.11;;;7.53;84.40
37066;BME280;22981;43.080;25.550;2024-02-14T04:23:15;99412.59;;;7.55;84.39
37066;BME280;22981;43.080;25.550;2024-02-14T04:25:42;99410.86;;;7.58;84.36
37066;BME280;22981;43.080;25.550;2024-02-14T04:28:10;99419.03;;;7.57;84.21
37066;BME280;22981;43.080;25.550;2024-02-14T04:30:38;99423.42;;;7.53;84.32
37066;BME280;22981;43.080;25.550;2024-02-14T04:33:07;99417.91;;;7.55;84.33
37066;BME280;22981;43.080;25.550;2024-02-14T04:35:35;99425.78;;;7.52;84.27
37066;BME280;22981;43.080;25.550;2024-02-14T04:38:03;99428.75;;;7.53;84.42
37066;BME280;22981;43.080;25.550;2024-02-14T04:40:31;99427.75;;;7.55;84.34
37066;BME280;22981;43.080;25.550;2024-02-14T04:42:58;99427.55;;;7.56;84.33
37066;BME280;22981;43.080;25.550;2024-02-14T04:45:26;99434.84;;;7.58;84.25
37066;BME280;22981;43.080;25.550;2024-02-14T04:47:53;99437.59;;;7.54;84.27
37066;BME280;22981;43.080;25.550;2024-02-14T04:50:22;99437.26;;;7.53;84.36
37066;BME280;22981;43.080;25.550;2024-02-14T04:52:49;99441.98;;;7.51;84.38
37066;BME280;22981;43.080;25.550;2024-02-14T04:55:17;99444.95;;;7.52;84.36
37066;BME280;22981;43.080;25.550;2024-02-14T04:57:45;99450.27;;;7.52;84.37
37066;BME280;22981;43.080;25.550;2024-02-14T05:00:13;99451.39;;;7.53;84.40
37066;BME280;22981;43.080;25.550;2024-02-14T05:02:41;99463.51;;;7.56;84.35
37066;BME280;22981;43.080;25.550;2024-02-14T05:05:08;99462.48;;;7.57;84.31
37066;BME280;22981;43.080;25.550;2024-02-14T05:07:36;99465.66;;;7.57;84.28
37066;BME280;22981;43.080;25.550;2024-02-14T05:10:04;99470.38;;;7.55;84.28
37066;BME280;22981;43.080;25.550;2024-02-14T05:12:33;99470.05;;;7.53;84.28
37066;BME280;22981;43.080;25.550;2024-02-14T05:15:00;99475.58;;;7.52;84.35
37066;BME280;22981;43.080;25.550;2024-02-14T05:17:29;99473.22;;;7.53;84.44
37066;BME280;22981;43.080;25.550;2024-02-14T05:19:56;99474.55;;;7.53;84.41
37066;BME280;22981;43.080;25.550;2024-02-14T05:22:24;99487.36;;;7.53;84.46
37066;BME280;22981;43.080;25.550;2024-02-14T05:24:52;99488.20;;;7.54;84.53
37066;BME280;22981;43.080;25.550;2024-02-14T05:27:20;99492.69;;;7.53;84.57
37066;BME280;22981;43.080;25.550;2024-02-14T05:29:47;99494.74;;;7.51;84.52
37066;BME280;22981;43.080;25.550;2024-02-14T05:32:15;99497.28;;;7.49;84.68
37066;BME280;22981;43.080;25.550;2024-02-14T05:34:43;99502.95;;;7.50;84.71
37066;BME280;22981;43.080;25.550;2024-02-14T05:37:10;99516.05;;;7.51;84.71
37066;BME280;22981;43.080;25.550;2024-02-14T05:39:38;99514.52;;;7.53;84.69
37066;BME280;22981;43.080;25.550;2024-02-14T05:42:06;99519.33;;;7.53;84.67
37066;BME280;22981;43.080;25.550;2024-02-14T05:44:34;99521.51;;;7.54;84.64
37066;BME280;22981;43.080;25.550;2024-02-14T05:47:01;99524.48;;;7.55;84.64
37066;BME280;22981;43.080;25.550;2024-02-14T05:49:29;99525.30;;;7.56;84.61
37066;BME280;22981;43.080;25.550;2024-02-14T05:51:57;99530.50;;;7.53;84.61
37066;BME280;22981;43.080;25.550;2024-02-14T05:54:24;99535.83;;;7.53;84.62
37066;BME280;22981;43.080;25.550;2024-02-14T05:56:52;99538.70;;;7.51;84.63
37066;BME280;22981;43.080;25.550;2024-02-14T05:59:19;99536.55;;;7.51;84.73
37066;BME280;22981;43.080;25.550;2024-02-14T06:01:47;99545.14;;;7.53;84.71
37066;BME280;22981;43.080;25.550;2024-02-14T06:04:15;99547.63;;;7.55;84.72
37066;BME280;22981;43.080;25.550;2024-02-14T06:06:42;99552.75;;;7.56;84.67
37066;BME280;22981;43.080;25.550;2024-02-14T06:09:10;99554.39;;;7.57;84.68
37066;BME280;22981;43.080;25.550;2024-02-14T06:11:38;99561.18;;;7.60;84.62
37066;BME280;22981;43.080;25.550;2024-02-14T06:14:07;99556.36;;;7.59;84.64
37066;BME280;22981;43.080;25.550;2024-02-14T06:16:35;99563.33;;;7.60;84.65
37066;BME280;22981;43.080;25.550;2024-02-14T06:19:03;99565.27;;;7.62;84.67
37066;BME280;22981;43.080;25.550;2024-02-14T06:21:33;99570.12;;;7.63;84.69
37066;BME280;22981;43.080;25.550;2024-02-14T06:24:01;99569.27;;;7.62;84.65
37066;BME280;22981;43.080;25.550;2024-02-14T06:26:31;99573.91;;;7.64;84.68
37066;BME280;22981;43.080;25.550;2024-02-14T06:28:59;99572.88;;;7.65;84.66
37066;BME280;22981;43.080;25.550;2024-02-14T06:31:27;99576.05;;;7.65;84.74
37066;BME280;22981;43.080;25.550;2024-02-14T06:33:54;99573.91;;;7.64;84.79
37066;BME280;22981;43.080;25.550;2024-02-14T06:36:22;99572.88;;;7.65;84.82
37066;BME280;22981;43.080;25.550;2024-02-14T06:38:49;99577.69;;;7.66;84.88
37066;BME280;22981;43.080;25.550;2024-02-14T06:41:17;99578.20;;;7.65;84.94
37066;BME280;22981;43.080;25.550;2024-02-14T06:43:46;99580.05;;;7.65;85.00
37066;BME280;22981;43.080;25.550;2024-02-14T06:46:14;99581.90;;;7.64;85.10
37066;BME280;22981;43.080;25.550;2024-02-14T06:48:42;99584.69;;;7.67;85.19
37066;BME280;22981;43.080;25.550;2024-02-14T06:51:09;99589.60;;;7.70;85.20
37066;BME280;22981;43.080;25.550;2024-02-14T06:53:37;99588.91;;;7.72;85.16
37066;BME280;22981;43.080;25.550;2024-02-14T06:56:05;99596.48;;;7.75;85.21
37066;BME280;22981;43.080;25.550;2024-02-14T06:58:33;99601.94;;;7.77;85.15
37066;BME280;22981;43.080;25.550;2024-02-14T07:01:01;99606.66;;;7.75;85.20
37066;BME280;22981;43.080;25.550;2024-02-14T07:03:29;99608.48;;;7.75;85.23
37066;BME280;22981;43.080;25.550;2024-02-14T07:05:57;99611.99;;;7.75;85.25
37066;BME280;22981;43.080;25.550;2024-02-14T07:08:24;99614.53;;;7.73;85.29
37066;BME280;22981;43.080;25.550;2024-02-14T07:10:55;99620.16;;;7.74;85.24
37066;BME280;22981;43.080;25.550;2024-02-14T07:13:22;99620.37;;;7.72;85.25
37066;BME280;22981;43.080;25.550;2024-02-14T07:15:50;99628.16;;;7.74;85.22
37066;BME280;22981;43.080;25.550;2024-02-14T07:18:18;99628.06;;;7.71;85.21
37066;BME280;22981;43.080;25.550;2024-02-14T07:20:46;99631.03;;;7.72;85.18
37066;BME280;22981;43.080;25.550;2024-02-14T07:23:14;99640.36;;;7.72;85.09
37066;BME280;22981;43.080;25.550;2024-02-14T07:25:41;99633.91;;;7.71;85.01
37066;BME280;22981;43.080;25.550;2024-02-14T07:28:10;99648.13;;;7.67;84.99
37066;BME280;22981;43.080;25.550;2024-02-14T07:30:37;99649.77;;;7.68;85.03
37066;BME280;22981;43.080;25.550;2024-02-14T07:33:05;99655.70;;;7.70;85.04
37066;BME280;22981;43.080;25.550;2024-02-14T07:35:34;99653.25;;;7.69;84.99
37066;BME280;22981;43.080;25.550;2024-02-14T07:38:01;99660.42;;;7.68;84.98
37066;BME280;22981;43.080;25.550;2024-02-14T07:40:29;99669.11;;;7.66;84.90
37066;BME280;22981;43.080;25.550;2024-02-14T07:42:58;99677.44;;;7.67;84.77
37066;BME280;22981;43.080;25.550;2024-02-14T07:45:26;99682.64;;;7.65;84.61
37066;BME280;22981;43.080;25.550;2024-02-14T07:47:53;99685.00;;;7.64;84.55
37066;BME280;22981;43.080;25.550;2024-02-14T07:50:21;99690.70;;;7.61;84.50
37066;BME280;22981;43.080;25.550;2024-02-14T07:52:48;99689.96;;;7.56;84.48
37066;BME280;22981;43.080;25.550;2024-02-14T07:55:16;99694.84;;;7.52;84.53
37066;BME280;22981;43.080;25.550;2024-02-14T07:57:44;99696.25;;;7.48;84.46
37066;BME280;22981;43.080;25.550;2024-02-14T08:00:13;99697.34;;;7.43;84.50
37066;BME280;22981;43.080;25.550;2024-02-14T08:02:42;99700.90;;;7.40;84.58
37066;BME280;22981;43.080;25.550;2024-02-14T08:05:09;99704.28;;;7.38;84.58
37066;BME280;22981;43.080;25.550;2024-02-14T08:07:37;99706.43;;;7.38;84.58
37066;BME280;22981;43.080;25.550;2024-02-14T08:10:05;99707.11;;;7.36;84.54
37066;BME280;22981;43.080;25.550;2024-02-14T08:12:33;99708.85;;;7.33;84.48
37066;BME280;22981;43.080;25.550;2024-02-14T08:15:00;99710.77;;;7.28;84.44
37066;BME280;22981;43.080;25.550;2024-02-14T08:17:30;99713.59;;;7.27;84.46
37066;BME280;22981;43.080;25.550;2024-02-14T08:19:57;99720.91;;;7.29;84.51
37066;BME280;22981;43.080;25.550;2024-02-14T08:22:25;99720.84;;;7.33;84.43
37066;BME280;22981;43.080;25.550;2024-02-14T08:24:53;99716.12;;;7.35;84.38
37066;BME280;22981;43.080;25.550;2024-02-14T08:27:22;99724.77;;;7.37;84.26
37066;BME280;22981;43.080;25.550;2024-02-14T08:29:50;99728.25;;;7.38;84.20
37066;BME280;22981;43.080;25.550;2024-02-14T08:32:17;99725.69;;;7.40;84.16
37066;BME280;22981;43.080;25.550;2024-02-14T08:34:45;99726.84;;;7.42;84.06
37066;BME280;22981;43.080;25.550;2024-02-14T08:37:14;99727.16;;;7.43;84.10
37066;BME280;22981;43.080;25.550;2024-02-14T08:39:41;99726.78;;;7.46;84.02
37066;BME280;22981;43.080;25.550;2024-02-14T08:42:09;99727.22;;;7.49;84.00
37066;BME280;22981;43.080;25.550;2024-02-14T08:44:37;99733.38;;;7.50;84.03
37066;BME280;22981;43.080;25.550;2024-02-14T08:47:04;99738.12;;;7.55;83.96
37066;BME280;22981;43.080;25.550;2024-02-14T08:49:32;99736.78;;;7.55;83.86
37066;BME280;22981;43.080;25.550;2024-02-14T08:52:00;99736.96;;;7.53;83.75
37066;BME280;22981;43.080;25.550;2024-02-14T08:54:27;99746.05;;;7.48;83.71
37066;BME280;22981;43.080;25.550;2024-02-14T08:56:55;99752.09;;;7.46;83.77
37066;BME280;22981;43.080;25.550;2024-02-14T08:59:24;99756.77;;;7.44;83.71
37066;BME280;22981;43.080;25.550;2024-02-14T09:01:52;99764.14;;;7.42;83.64
37066;BME280;22981;43.080;25.550;2024-02-14T09:04:20;99761.78;;;7.43;83.68
37066;BME280;22981;43.080;25.550;2024-02-14T09:06:48;99755.74;;;7.45;83.65
37066;BME280;22981;43.080;25.550;2024-02-14T09:09:15;99763.25;;;7.45;83.56
37066;BME280;22981;43.080;25.550;2024-02-14T09:11:43;99760.59;;;7.45;83.61
37066;BME280;22981;43.080;25.550;2024-02-14T09:14:11;99760.59;;;7.45;83.43
37066;BME280;22981;43.080;25.550;2024-02-14T09:16:40;99765.34;;;7.39;83.40
37066;BME280;22981;43.080;25.550;2024-02-14T09:19:08;99760.14;;;7.42;83.54
37066;BME280;22981;43.080;25.550;2024-02-14T09:21:36;99762.61;;;7.43;83.55
37066;BME280;22981;43.080;25.550;2024-02-14T09:24:04;99767.88;;;7.47;83.53
37066;BME280;22981;43.080;25.550;2024-02-14T09:26:33;99770.02;;;7.48;83.32
37066;BME280;22981;43.080;25.550;2024-02-14T09:29:00;99770.91;;;7.44;83.25
37066;BME280;22981;43.080;25.550;2024-02-14T09:31:28;99769.06;;;7.45;83.36
37066;BME280;22981;43.080;25.550;2024-02-14T09:33:56;99761.21;;;7.47;83.38
37066;BME280;22981;43.080;25.550;2024-02-14T09:36:25;99766.02;;;7.48;83.25
37066;BME280;22981;43.080;25.550;2024-02-14T09:38:53;99764.63;;;7.52;83.19
37066;BME280;22981;43.080;25.550;2024-02-14T09:41:36;99761.08;;;7.56;83.11
37066;BME280;22981;43.080;25.550;2024-02-14T09:44:01;99767.67;;;7.60;83.05
37066;BME280;22981;43.080;25.550;2024-02-14T09:46:29;99763.09;;;7.64;82.90
37066;BME280;22981;43.080;25.550;2024-02-14T09:48:58;99766.38;;;7.66;82.75
37066;BME280;22981;43.080;25.550;2024-02-14T09:51:26;99763.09;;;7.64;82.76
37066;BME280;22981;43.080;25.550;2024-02-14T09:53:54;99764.22;;;7.66;82.80
37066;BME280;22981;43.080;25.550;2024-02-14T09:56:22;99760.66;;;7.69;82.85
37066;BME280;22981;43.080;25.550;2024-02-14T09:58:50;99769.81;;;7.71;82.81
37066;BME280;22981;43.080;25.550;2024-02-14T10:01:24;99757.48;;;7.70;82.88
37066;BME280;22981;43.080;25.550;2024-02-14T10:03:54;99755.33;;;7.69;82.95
37066;BME280;22981;43.080;25.550;2024-02-14T10:06:22;99754.31;;;7.70;82.92
37066;BME280;22981;43.080;25.550;2024-02-14T10:08:51;99757.38;;;7.67;82.83
37066;BME280;22981;43.080;25.550;2024-02-14T10:11:19;99755.41;;;7.65;82.89
37066;BME280;22981;43.080;25.550;2024-02-14T10:13:48;99752.56;;;7.67;82.91
37066;BME280;22981;43.080;25.550;2024-02-14T10:16:20;99754.23;;;7.74;82.87
37066;BME280;22981;43.080;25.550;2024-02-14T10:18:48;99750.17;;;7.78;82.83
37066;BME280;22981;43.080;25.550;2024-02-14T10:21:16;99749.79;;;7.82;82.80
37066;BME280;22981;43.080;25.550;2024-02-14T10:23:45;99754.91;;;7.83;82.77
37066;BME280;22981;43.080;25.550;2024-02-14T10:26:18;99754.91;;;7.83;82.78
37066;BME280;22981;43.080;25.550;2024-02-14T10:28:46;99747.33;;;7.80;82.81
37066;BME280;22981;43.080;25.550;2024-02-14T10:31:14;99752.02;;;7.78;82.59
37066;BME280;22981;43.080;25.550;2024-02-14T10:33:42;99751.78;;;7.73;82.64
37066;BME280;22981;43.080;25.550;2024-02-14T10:36:12;99747.03;;;7.68;82.82
37066;BME280;22981;43.080;25.550;2024-02-14T10:38:40;99746.52;;;7.69;82.91
37066;BME280;22981;43.080;25.550;2024-02-14T10:41:09;99753.69;;;7.68;82.90
37066;BME280;22981;43.080;25.550;2024-02-14T10:43:40;99742.39;;;7.66;82.95
37066;BME280;22981;43.080;25.550;2024-02-14T10:46:20;99747.41;;;7.65;82.93
37066;BME280;22981;43.080;25.550;2024-02-14T10:48:44;99747.17;;;7.60;82.87
37066;BME280;22981;43.080;25.550;2024-02-14T10:51:13;99741.78;;;7.53;82.87
37066;BME280;22981;43.080;25.550;2024-02-14T10:53:44;99742.19;;;7.50;82.98
37066;BME280;22981;43.080;25.550;2024-02-14T10:56:18;99741.47;;;7.52;83.08
37066;BME280;22981;43.080;25.550;2024-02-14T10:58:45;99744.64;;;7.52;83.02
37066;BME280;22981;43.080;25.550;2024-02-14T11:01:14;99743.63;;;7.53;83.16
37066;BME280;22981;43.080;25.550;2024-02-14T11:03:44;99732.14;;;7.52;83.07
37066;BME280;22981;43.080;25.550;2024-02-14T11:06:16;99736.89;;;7.57;82.98
37066;BME280;22981;43.080;25.550;2024-02-14T11:09:01;99742.39;;;7.66;82.87
37066;BME280;22981;43.080;25.550;2024-02-14T11:11:32;99736.81;;;7.72;82.43
37066;BME280;22981;43.080;25.550;2024-02-14T11:14:00;99737.50;;;7.70;82.04
37066;BME280;22981;43.080;25.550;2024-02-14T11:16:28;99739.03;;;7.68;81.89
37066;BME280;22981;43.080;25.550;2024-02-14T11:19:12;99735.86;;;7.69;81.80
37066;BME280;22981;43.080;25.550;2024-02-14T11:21:41;99736.81;;;7.72;81.75
37066;BME280;22981;43.080;25.550;2024-02-14T11:24:13;99734.31;;;7.81;81.68
37066;BME280;22981;43.080;25.550;2024-02-14T11:26:48;99733.85;;;7.88;81.40
37066;BME280;22981;43.080;25.550;2024-02-14T11:29:18;99732.83;;;7.89;81.31
37066;BME280;22981;43.080;25.550;2024-02-14T11:31:46;99735.80;;;7.90;81.20
37066;BME280;22981;43.080;25.550;2024-02-14T11:34:15;99732.11;;;7.91;81.11
37066;BME280;22981;43.080;25.550;2024-02-14T11:36:44;99735.21;;;7.95;81.10
37066;BME280;22981;43.080;25.550;2024-02-14T11:39:12;99739.52;;;7.96;81.09
37066;BME280;22981;43.080;25.550;2024-02-14T11:41:40;99748.61;;;7.91;80.88
37066;BME280;22981;43.080;25.550;2024-02-14T11:44:11;99736.39;;;7.86;80.77
37066;BME280;22981;43.080;25.550;2024-02-14T11:46:39;99746.33;;;7.88;80.72
37066;BME280;22981;43.080;25.550;2024-02-14T11:49:08;99752.45;;;7.82;80.47
37066;BME280;22981;43.080;25.550;2024-02-14T11:51:35;99743.20;;;7.77;80.20
37066;BME280;22981;43.080;25.550;2024-02-14T11:54:05;99750.45;;;7.73;80.06
37066;BME280;22981;43.080;25.550;2024-02-14T11:56:39;99745.83;;;7.71;80.08
37066;BME280;22981;43.080;25.550;2024-02-14T11:59:08;99753.18;;;7.69;79.93
37066;BME280;22981;43.080;25.550;2024-02-14T12:01:38;99751.78;;;7.73;79.89
37066;BME280;22981;43.080;25.550;2024-02-14T12:04:08;99746.89;;;7.76;79.80
37066;BME280;22981;43.080;25.550;2024-02-14T12:06:39;99753.27;;;7.82;79.75
37066;BME280;22981;43.080;25.550;2024-02-14T12:09:11;99750.23;;;7.85;79.54
37066;BME280;22981;43.080;25.550;2024-02-14T12:11:41;99754.91;;;7.83;79.30
37066;BME280;22981;43.080;25.550;2024-02-14T12:14:11;99749.09;;;7.84;79.25
37066;BME280;22981;43.080;25.550;2024-02-14T12:16:39;99746.53;;;7.86;79.15
37066;BME280;22981;43.080;25.550;2024-02-14T12:19:09;99742.02;;;7.87;79.10
37066;BME280;22981;43.080;25.550;2024-02-14T12:21:38;99747.66;;;7.88;79.15
37066;BME280;22981;43.080;25.550;2024-02-14T12:24:09;99752.69;;;7.87;79.04
37066;BME280;22981;43.080;25.550;2024-02-14T12:26:38;99755.42;;;7.83;78.94
37066;BME280;22981;43.080;25.550;2024-02-14T12:29:07;99758.30;;;7.81;78.86
37066;BME280;22981;43.080;25.550;2024-02-14T12:31:35;99753.04;;;7.77;78.50
37066;BME280;22981;43.080;25.550;2024-02-14T12:34:03;99749.63;;;7.72;78.58
37066;BME280;22981;43.080;25.550;2024-02-14T12:36:32;99751.91;;;7.75;78.55
37066;BME280;22981;43.080;25.550;2024-02-14T12:39:00;99752.59;;;7.73;78.29
37066;BME280;22981;43.080;25.550;2024-02-14T12:41:31;99745.83;;;7.71;78.26
37066;BME280;22981;43.080;25.550;2024-02-14T12:44:01;99755.84;;;7.69;78.25
37066;BME280;22981;43.080;25.550;2024-02-14T12:46:28;99753.25;;;7.65;78.27
37066;BME280;22981;43.080;25.550;2024-02-14T12:48:56;99755.09;;;7.64;78.34
37066;BME280;22981;43.080;25.550;2024-02-14T12:51:24;99763.30;;;7.63;78.39
37066;BME280;22981;43.080;25.550;2024-02-14T12:53:53;99763.16;;;7.60;78.29
37066;BME280;22981;43.080;25.550;2024-02-14T12:56:21;99758.72;;;7.57;78.28
37066;BME280;22981;43.080;25.550;2024-02-14T12:58:48;99760.56;;;7.56;78.34
37066;BME280;22981;43.080;25.550;2024-02-14T13:01:16;99759.02;;;7.58;78.41
37066;BME280;22981;43.080;25.550;2024-02-14T13:03:44;99760.88;;;7.57;78.25
37066;BME280;22981;43.080;25.550;2024-02-14T13:06:11;99763.80;;;7.51;78.01
37066;BME280;22981;43.080;25.550;2024-02-14T13:08:40;99768.38;;;7.47;78.07
37066;BME280;22981;43.080;25.550;2024-02-14T13:11:08;99768.58;;;7.45;78.11
37066;BME280;22981;43.080;25.550;2024-02-14T13:13:36;99764.59;;;7.45;78.21
37066;BME280;22981;43.080;25.550;2024-02-14T13:16:04;99772.37;;;7.47;78.34
37066;BME280;22981;43.080;25.550;2024-02-14T13:18:32;99770.16;;;7.50;78.32
37066;BME280;22981;43.080;25.550;2024-02-14T13:21:01;99773.40;;;7.46;78.00
37066;BME280;22981;43.080;25.550;2024-02-14T13:23:28;99779.23;;;7.45;78.12
37066;BME280;22981;43.080;25.550;2024-02-14T13:25:56;99780.17;;;7.48;78.11
37066;BME280;22981;43.080;25.550;2024-02-14T13:28:25;99786.00;;;7.48;77.96
37066;BME280;22981;43.080;25.550;2024-02-14T13:30:52;99786.31;;;7.49;77.85
37066;BME280;22981;43.080;25.550;2024-02-14T13:33:20;99790.65;;;7.50;77.80
37066;BME280;22981;43.080;25.550;2024-02-14T13:35:47;99791.58;;;7.53;77.83
37066;BME280;22981;43.080;25.550;2024-02-14T13:38:15;99790.52;;;7.58;77.75
37066;BME280;22981;43.080;25.550;2024-02-14T13:40:43;99789.19;;;7.58;77.53
37066;BME280;22981;43.080;25.550;2024-02-14T13:43:11;99795.00;;;7.58;77.46
37066;BME280;22981;43.080;25.550;2024-02-14T13:45:43;99792.02;;;7.57;77.53
37066;BME280;22981;43.080;25.550;2024-02-14T13:48:11;99797.18;;;7.58;77.52
37066;BME280;22981;43.080;25.550;2024-02-14T13:50:39;99789.05;;;7.56;77.48
37066;BME280;22981;43.080;25.550;2024-02-14T13:53:09;99792.84;;;7.57;77.41
37066;BME280;22981;43.080;25.550;2024-02-14T13:55:37;99792.78;;;7.61;77.25
37066;BME280;22981;43.080;25.550;2024-02-14T13:58:05;99779.14;;;7.60;77.10
37066;BME280;22981;43.080;25.550;2024-02-14T14:00:34;99781.74;;;7.64;77.20
37066;BME280;22981;43.080;25.550;2024-02-14T14:03:02;99777.98;;;7.69;77.20
37066;BME280;22981;43.080;25.550;2024-02-14T14:05:29;99778.22;;;7.74;77.21
37066;BME280;22981;43.080;25.550;2024-02-14T14:07:57;99779.69;;;7.77;77.06
37066;BME280;22981;43.080;25.550;2024-02-14T14:10:26;99781.98;;;7.80;77.02
37066;BME280;22981;43.080;25.550;2024-02-14T14:12:54;99784.44;;;7.82;76.92
37066;BME280;22981;43.080;25.550;2024-02-14T14:15:22;99782.90;;;7.83;76.83
37066;BME280;22981;43.080;25.550;2024-02-14T14:17:50;99784.06;;;7.85;76.82
37066;BME280;22981;43.080;25.550;2024-02-14T14:20:17;99790.72;;;7.85;76.74
37066;BME280;22981;43.080;25.550;2024-02-14T14:22:45;99786.08;;;7.83;76.66
37066;BME280;22981;43.080;25.550;2024-02-14T14:25:12;99795.61;;;7.81;76.62
37066;BME280;22981;43.080;25.550;2024-02-14T14:27:40;99796.43;;;7.82;76.61
37066;BME280;22981;43.080;25.550;2024-02-14T14:30:09;99798.72;;;7.85;76.60
37066;BME280;22981;43.080;25.550;2024-02-14T14:32:37;99796.56;;;7.84;76.50
37066;BME280;22981;43.080;25.550;2024-02-14T14:35:06;99795.54;;;7.85;76.51
37066;BME280;22981;43.080;25.550;2024-02-14T14:37:35;99797.56;;;7.83;76.43
37066;BME280;22981;43.080;25.550;2024-02-14T14:40:03;99804.22;;;7.83;76.35
37066;BME280;22981;43.080;25.550;2024-02-14T14:42:31;99803.30;;;7.80;76.16
37066;BME280;22981;43.080;25.550;2024-02-14T14:44:59;99803.16;;;7.77;76.15
37066;BME280;22981;43.080;25.550;2024-02-14T14:47:26;99801.01;;;7.77;76.20
37066;BME280;22981;43.080;25.550;2024-02-14T14:49:54;99805.52;;;7.76;76.19
37066;BME280;22981;43.080;25.550;2024-02-14T14:52:21;99803.87;;;7.75;76.22
37066;BME280;22981;43.080;25.550;2024-02-14T14:54:49;99806.86;;;7.76;76.27
37066;BME280;22981;43.080;25.550;2024-02-14T14:57:17;99803.87;;;7.75;76.29
37066;BME280;22981;43.080;25.550;2024-02-14T14:59:44;99807.88;;;7.75;76.30
37066;BME280;22981;43.080;25.550;2024-02-14T15:02:12;99807.23;;;7.73;76.26
37066;BME280;22981;43.080;25.550;2024-02-14T15:04:39;99811.94;;;7.71;76.30
37066;BME280;22981;43.080;25.550;2024-02-14T15:07:09;99812.45;;;7.71;76.22
37066;BME280;22981;43.080;25.550;2024-02-14T15:09:36;99810.48;;;7.69;76.23
37066;BME280;22981;43.080;25.550;2024-02-14T15:12:04;99812.63;;;7.69;76.26
37066;BME280;22981;43.080;25.550;2024-02-14T15:14:32;99809.66;;;7.68;76.25
37066;BME280;22981;43.080;25.550;2024-02-14T15:16:59;99817.65;;;7.68;76.22
37066;BME280;22981;43.080;25.550;2024-02-14T15:19:27;99818.33;;;7.66;76.23
37066;BME280;22981;43.080;25.550;2024-02-14T15:21:54;99823.19;;;7.67;76.20
37066;BME280;22981;43.080;25.550;2024-02-14T15:24:22;99826.16;;;7.68;76.14
37066;BME280;22981;43.080;25.550;2024-02-14T15:26:49;99824.83;;;7.68;76.05
37066;BME280;22981;43.080;25.550;2024-02-14T15:29:19;99823.35;;;7.65;75.97
37066;BME280;22981;43.080;25.550;2024-02-14T15:32:05;99827.86;;;7.65;75.92
37066;BME280;22981;43.080;25.550;2024-02-14T15:34:50;99827.24;;;7.63;75.91
37066;BME280;22981;43.080;25.550;2024-02-14T15:37:18;99830.73;;;7.63;75.91
37066;BME280;22981;43.080;25.550;2024-02-14T15:39:46;99835.23;;;7.63;75.92
37066;BME280;22981;43.080;25.550;2024-02-14T15:42:13;99836.74;;;7.61;75.89
37066;BME280;22981;43.080;25.550;2024-02-14T15:44:41;99839.61;;;7.60;75.88
37066;BME280;22981;43.080;25.550;2024-02-14T15:47:08;99839.30;;;7.59;75.88
37066;BME280;22981;43.080;25.550;2024-02-14T15:49:36;99837.62;;;7.58;75.94
37066;BME280;22981;43.080;25.550;2024-02-14T15:52:04;99840.29;;;7.58;75.96
37066;BME280;22981;43.080;25.550;2024-02-14T15:54:32;99841.63;;;7.58;75.99
37066;BME280;22981;43.080;25.550;2024-02-14T15:56:59;99855.97;;;7.57;76.03
37066;BME280;22981;43.080;25.550;2024-02-14T15:59:27;99858.02;;;7.55;76.05
37066;BME280;22981;43.080;25.550;2024-02-14T16:01:56;99863.65;;;7.56;76.12
37066;BME280;22981;43.080;25.550;2024-02-14T16:04:25;99866.31;;;7.56;76.16
37066;BME280;22981;43.080;25.550;2024-02-14T16:06:53;99865.50;;;7.55;76.20
37066;BME280;22981;43.080;25.550;2024-02-14T16:09:21;99863.20;;;7.52;76.17
37066;BME280;22981;43.080;25.550;2024-02-14T16:11:48;99866.06;;;7.50;76.24
37066;BME280;22981;43.080;25.550;2024-02-14T16:14:17;99873.55;;;7.51;76.20
37066;BME280;22981;43.080;25.550;2024-02-14T16:16:45;99875.19;;;7.52;76.19
37066;BME280;22981;43.080;25.550;2024-02-14T16:19:13;99874.88;;;7.51;76.22
37066;BME280;22981;43.080;25.550;2024-02-14T16:21:41;99884.00;;;7.52;76.24
37066;BME280;22981;43.080;25.550;2024-02-14T16:24:08;99885.02;;;7.51;76.30
37066;BME280;22981;43.080;25.550;2024-02-14T16:26:36;99888.20;;;7.51;76.36
37066;BME280;22981;43.080;25.550;2024-02-14T16:29:03;99887.89;;;7.50;76.39
37066;BME280;22981;43.080;25.550;2024-02-14T16:31:31;99896.39;;;7.49;76.50
37066;BME280;22981;43.080;25.550;2024-02-14T16:33:58;99900.87;;;7.49;76.51